sensor_id;sensor_type;location;lat;lon;timestamp;P1;durP1;ratioP1;P2;durP2;ratioP2
19406;SDS011;9839;53.364;-1.204;2023-08-24T00:00:31;5.40;;;2.70;;
19406;SDS011;9839;53.364;-1.204;2023-08-24T00:03:00;6.75;;;3.40;;
19406;SDS011;9839;53.364;-1.204;2023-08-24T00:05:27;4.38;;;2.67;;
19406;SDS011;9839;53.364;-1.204;2023-08-24T00:07:53;5.45;;;2.78;;
19406;SDS011;9839;53.364;-1.204;2023-08-24T00:10:18;7.32;;;3.50;;
19406;SDS011;9839;53.364;-1.204;2023-08-24T00:12:44;6.95;;;3.10;;
19406;SDS011;9839;53.364;-1.204;2023-08-24T00:15:10;5.35;;;3.10;;
19406;SDS011;9839;53.364;-1.204;2023-08-24T00:17:36;6.20;;;3.40;;
19406;SDS011;9839;53.364;-1.204;2023-08-24T00:20:02;8.00;;;3.40;;
19406;SDS011;9839;53.364;-1.204;2023-08-24T00:22:38;6.28;;;2.95;;
19406;SDS011;9839;53.364;-1.204;2023-08-24T00:25:05;7.03;;;2.97;;
19406;SDS011;9839;53.364;-1.204;2023-08-24T00:27:31;6.05;;;3.28;;
19406;SDS011;9839;53.364;-1.204;2023-08-24T00:29:57;6.43;;;3.88;;
19406;SDS011;9839;53.364;-1.204;2023-08-24T00:32:23;6.35;;;3.35;;
19406;SDS011;9839;53.364;-1.204;2023-08-24T00:34:48;7.90;;;3.45;;
19406;SDS011;9839;53.364;-1.204;2023-08-24T00:37:13;4.38;;;2.90;;
19406;SDS011;9839;53.364;-1.204;2023-08-24T00:39:39;6.25;;;3.28;;
19406;SDS011;9839;53.364;-1.204;2023-08-24T00:42:04;4.93;;;3.05;;
19406;SDS011;9839;53.364;-1.204;2023-08-24T00:44:30;6.20;;;3.22;;
19406;SDS011;9839;53.364;-1.204;2023-08-24T00:46:56;6.20;;;3.38;;
19406;SDS011;9839;53.364;-1.204;2023-08-24T00:49:22;7.25;;;3.00;;
19406;SDS011;9839;53.364;-1.204;2023-08-24T00:51:47;3.88;;;2.63;;
19406;SDS011;9839;53.364;-1.204;2023-08-24T00:54:12;3.55;;;2.78;;
19406;SDS011;9839;53.364;-1.204;2023-08-24T00:56:38;7.10;;;3.22;;
19406;SDS011;9839;53.364;-1.204;2023-08-24T00:59:03;4.43;;;2.70;;
19406;SDS011;9839;53.364;-1.204;2023-08-24T01:01:28;4.07;;;2.88;;
19406;SDS011;9839;53.364;-1.204;2023-08-24T01:03:54;5.90;;;3.08;;
19406;SDS011;9839;53.364;-1.204;2023-08-24T01:06:19;4.40;;;2.80;;
19406;SDS011;9839;53.364;-1.204;2023-08-24T01:08:45;12.85;;;3.53;;
19406;SDS011;9839;53.364;-1.204;2023-08-24T01:16:43;7.00;;;3.15;;
19406;SDS011;9839;53.364;-1.204;2023-08-24T01:19:13;6.97;;;3.38;;
19406;SDS011;9839;53.364;-1.204;2023-08-24T01:21:46;4.50;;;2.75;;
19406;SDS011;9839;53.364;-1.204;2023-08-24T01:24:14;5.13;;;3.22;;
19406;SDS011;9839;53.364;-1.204;2023-08-24T01:26:43;3.58;;;2.63;;
19406;SDS011;9839;53.364;-1.204;2023-08-24T01:29:09;4.93;;;3.03;;
19406;SDS011;9839;53.364;-1.204;2023-08-24T01:31:35;5.55;;;3.20;;
19406;SDS011;9839;53.364;-1.204;2023-08-24T01:34:00;4.80;;;2.90;;
19406;SDS011;9839;53.364;-1.204;2023-08-24T01:36:26;4.80;;;3.10;;
19406;SDS011;9839;53.364;-1.204;2023-08-24T01:39:41;7.10;;;2.78;;
19406;SDS011;9839;53.364;-1.204;2023-08-24T01:41:46;7.75;;;3.50;;
19406;SDS011;9839;53.364;-1.204;2023-08-24T01:44:15;5.53;;;3.08;;
19406;SDS011;9839;53.364;-1.204;2023-08-24T01:46:43;4.10;;;2.47;;
19406;SDS011;9839;53.364;-1.204;2023-08-24T01:49:10;5.93;;;3.78;;
19406;SDS011;9839;53.364;-1.204;2023-08-24T01:51:37;7.80;;;4.40;;
19406;SDS011;9839;53.364;-1.204;2023-08-24T01:54:02;7.25;;;2.65;;
19406;SDS011;9839;53.364;-1.204;2023-08-24T01:56:27;4.60;;;3.28;;
19406;SDS011;9839;53.364;-1.204;2023-08-24T01:58:53;5.85;;;3.03;;
19406;SDS011;9839;53.364;-1.204;2023-08-24T02:01:18;6.65;;;3.28;;
19406;SDS011;9839;53.364;-1.204;2023-08-24T02:03:43;4.63;;;3.00;;
19406;SDS011;9839;53.364;-1.204;2023-08-24T02:06:09;4.38;;;2.80;;
19406;SDS011;9839;53.364;-1.204;2023-08-24T02:08:34;4.68;;;2.60;;
19406;SDS011;9839;53.364;-1.204;2023-08-24T02:11:00;6.75;;;2.95;;
19406;SDS011;9839;53.364;-1.204;2023-08-24T02:13:25;6.72;;;2.78;;
19406;SDS011;9839;53.364;-1.204;2023-08-24T02:15:51;5.15;;;2.65;;
19406;SDS011;9839;53.364;-1.204;2023-08-24T02:18:26;7.03;;;2.88;;
19406;SDS011;9839;53.364;-1.204;2023-08-24T02:20:51;5.78;;;2.83;;
19406;SDS011;9839;53.364;-1.204;2023-08-24T02:23:16;6.22;;;3.17;;
19406;SDS011;9839;53.364;-1.204;2023-08-24T02:25:42;7.20;;;3.03;;
19406;SDS011;9839;53.364;-1.204;2023-08-24T02:28:08;7.60;;;3.25;;
19406;SDS011;9839;53.364;-1.204;2023-08-24T02:30:36;4.57;;;2.80;;
19406;SDS011;9839;53.364;-1.204;2023-08-24T02:33:02;8.65;;;3.38;;
19406;SDS011;9839;53.364;-1.204;2023-08-24T02:35:28;4.50;;;2.55;;
19406;SDS011;9839;53.364;-1.204;2023-08-24T02:37:53;7.22;;;2.55;;
19406;SDS011;9839;53.364;-1.204;2023-08-24T02:40:21;8.18;;;3.00;;
19406;SDS011;9839;53.364;-1.204;2023-08-24T02:42:46;5.20;;;2.45;;
19406;SDS011;9839;53.364;-1.204;2023-08-24T02:45:11;4.35;;;2.80;;
19406;SDS011;9839;53.364;-1.204;2023-08-24T02:47:37;4.75;;;2.90;;
19406;SDS011;9839;53.364;-1.204;2023-08-24T02:50:02;7.88;;;3.30;;
19406;SDS011;9839;53.364;-1.204;2023-08-24T02:52:29;8.07;;;2.88;;
19406;SDS011;9839;53.364;-1.204;2023-08-24T02:54:54;5.88;;;3.00;;
19406;SDS011;9839;53.364;-1.204;2023-08-24T02:57:19;7.40;;;3.05;;
19406;SDS011;9839;53.364;-1.204;2023-08-24T02:59:45;5.57;;;3.38;;
19406;SDS011;9839;53.364;-1.204;2023-08-24T03:02:10;7.82;;;4.53;;
19406;SDS011;9839;53.364;-1.204;2023-08-24T03:04:35;6.05;;;3.13;;
19406;SDS011;9839;53.364;-1.204;2023-08-24T03:07:01;5.35;;;3.55;;
19406;SDS011;9839;53.364;-1.204;2023-08-24T03:09:26;7.90;;;3.65;;
19406;SDS011;9839;53.364;-1.204;2023-08-24T03:11:52;7.30;;;3.20;;
19406;SDS011;9839;53.364;-1.204;2023-08-24T03:14:17;6.70;;;3.42;;
19406;SDS011;9839;53.364;-1.204;2023-08-24T03:16:43;6.82;;;3.17;;
19406;SDS011;9839;53.364;-1.204;2023-08-24T03:19:09;10.57;;;4.05;;
19406;SDS011;9839;53.364;-1.204;2023-08-24T03:21:34;10.20;;;4.15;;
19406;SDS011;9839;53.364;-1.204;2023-08-24T03:24:00;7.03;;;4.30;;
19406;SDS011;9839;53.364;-1.204;2023-08-24T03:26:25;7.30;;;4.43;;
19406;SDS011;9839;53.364;-1.204;2023-08-24T03:28:50;8.68;;;4.28;;
19406;SDS011;9839;53.364;-1.204;2023-08-24T03:31:16;10.20;;;4.68;;
19406;SDS011;9839;53.364;-1.204;2023-08-24T03:33:41;8.20;;;4.70;;
19406;SDS011;9839;53.364;-1.204;2023-08-24T03:36:07;8.32;;;4.75;;
19406;SDS011;9839;53.364;-1.204;2023-08-24T03:38:32;9.15;;;5.00;;
19406;SDS011;9839;53.364;-1.204;2023-08-24T03:41:01;11.68;;;5.60;;
19406;SDS011;9839;53.364;-1.204;2023-08-24T03:43:34;9.23;;;5.18;;
19406;SDS011;9839;53.364;-1.204;2023-08-24T03:46:00;13.60;;;5.60;;
19406;SDS011;9839;53.364;-1.204;2023-08-24T03:48:26;9.60;;;4.75;;
19406;SDS011;9839;53.364;-1.204;2023-08-24T03:50:55;13.70;;;6.10;;
19406;SDS011;9839;53.364;-1.204;2023-08-24T03:53:21;14.30;;;5.30;;
19406;SDS011;9839;53.364;-1.204;2023-08-24T03:55:47;10.73;;;5.18;;
19406;SDS011;9839;53.364;-1.204;2023-08-24T03:58:14;9.65;;;5.28;;
19406;SDS011;9839;53.364;-1.204;2023-08-24T04:00:39;12.13;;;5.47;;
19406;SDS011;9839;53.364;-1.204;2023-08-24T04:03:05;10.50;;;5.05;;
19406;SDS011;9839;53.364;-1.204;2023-08-24T04:05:31;16.10;;;5.85;;
19406;SDS011;9839;53.364;-1.204;2023-08-24T04:07:56;9.40;;;5.03;;
19406;SDS011;9839;53.364;-1.204;2023-08-24T04:10:21;9.60;;;4.88;;
19406;SDS011;9839;53.364;-1.204;2023-08-24T04:12:47;10.55;;;5.43;;
19406;SDS011;9839;53.364;-1.204;2023-08-24T04:15:12;8.88;;;5.38;;
19406;SDS011;9839;53.364;-1.204;2023-08-24T04:17:38;10.48;;;5.40;;
19406;SDS011;9839;53.364;-1.204;2023-08-24T04:20:03;10.73;;;5.20;;
19406;SDS011;9839;53.364;-1.204;2023-08-24T04:22:31;9.30;;;5.30;;
19406;SDS011;9839;53.364;-1.204;2023-08-24T04:24:57;11.82;;;5.40;;
19406;SDS011;9839;53.364;-1.204;2023-08-24T04:27:22;12.38;;;5.60;;
19406;SDS011;9839;53.364;-1.204;2023-08-24T04:29:47;14.27;;;5.47;;
19406;SDS011;9839;53.364;-1.204;2023-08-24T04:32:13;10.35;;;5.22;;
19406;SDS011;9839;53.364;-1.204;2023-08-24T04:34:39;13.23;;;5.38;;
19406;SDS011;9839;53.364;-1.204;2023-08-24T04:37:05;8.88;;;5.18;;
19406;SDS011;9839;53.364;-1.204;2023-08-24T04:39:30;13.90;;;5.13;;
19406;SDS011;9839;53.364;-1.204;2023-08-24T04:41:56;10.85;;;5.00;;
19406;SDS011;9839;53.364;-1.204;2023-08-24T04:44:22;8.60;;;4.95;;
19406;SDS011;9839;53.364;-1.204;2023-08-24T04:46:47;9.77;;;5.18;;
19406;SDS011;9839;53.364;-1.204;2023-08-24T04:49:14;12.57;;;4.97;;
19406;SDS011;9839;53.364;-1.204;2023-08-24T04:51:39;12.52;;;4.95;;
19406;SDS011;9839;53.364;-1.204;2023-08-24T04:54:05;7.65;;;4.80;;
19406;SDS011;9839;53.364;-1.204;2023-08-24T04:56:30;13.25;;;5.60;;
19406;SDS011;9839;53.364;-1.204;2023-08-24T04:58:56;8.68;;;4.57;;
19406;SDS011;9839;53.364;-1.204;2023-08-24T05:01:22;10.63;;;5.32;;
19406;SDS011;9839;53.364;-1.204;2023-08-24T05:03:48;13.15;;;4.60;;
19406;SDS011;9839;53.364;-1.204;2023-08-24T05:06:13;9.65;;;4.45;;
19406;SDS011;9839;53.364;-1.204;2023-08-24T05:08:38;9.27;;;4.10;;
19406;SDS011;9839;53.364;-1.204;2023-08-24T05:11:11;9.52;;;4.22;;
19406;SDS011;9839;53.364;-1.204;2023-08-24T05:13:38;10.23;;;4.65;;
19406;SDS011;9839;53.364;-1.204;2023-08-24T05:16:04;9.68;;;4.28;;
19406;SDS011;9839;53.364;-1.204;2023-08-24T05:18:29;8.15;;;3.65;;
19406;SDS011;9839;53.364;-1.204;2023-08-24T05:20:54;13.48;;;4.15;;
19406;SDS011;9839;53.364;-1.204;2023-08-24T05:23:20;8.90;;;4.07;;
19406;SDS011;9839;53.364;-1.204;2023-08-24T05:25:45;7.03;;;3.40;;
19406;SDS011;9839;53.364;-1.204;2023-08-24T05:28:10;9.20;;;3.67;;
19406;SDS011;9839;53.364;-1.204;2023-08-24T05:30:36;7.53;;;3.22;;
19406;SDS011;9839;53.364;-1.204;2023-08-24T05:33:02;7.30;;;3.53;;
19406;SDS011;9839;53.364;-1.204;2023-08-24T05:35:28;8.63;;;3.15;;
19406;SDS011;9839;53.364;-1.204;2023-08-24T05:37:53;9.00;;;3.00;;
19406;SDS011;9839;53.364;-1.204;2023-08-24T05:40:19;6.80;;;2.53;;
19406;SDS011;9839;53.364;-1.204;2023-08-24T05:42:44;3.22;;;2.35;;
19406;SDS011;9839;53.364;-1.204;2023-08-24T05:45:09;3.58;;;2.42;;
19406;SDS011;9839;53.364;-1.204;2023-08-24T05:47:35;6.03;;;2.50;;
19406;SDS011;9839;53.364;-1.204;2023-08-24T05:50:00;4.70;;;2.78;;
19406;SDS011;9839;53.364;-1.204;2023-08-24T05:52:25;3.70;;;2.15;;
19406;SDS011;9839;53.364;-1.204;2023-08-24T05:54:52;4.82;;;2.50;;
19406;SDS011;9839;53.364;-1.204;2023-08-24T05:57:17;5.22;;;2.25;;
19406;SDS011;9839;53.364;-1.204;2023-08-24T05:59:42;4.22;;;1.92;;
19406;SDS011;9839;53.364;-1.204;2023-08-24T06:02:08;6.22;;;2.10;;
19406;SDS011;9839;53.364;-1.204;2023-08-24T06:04:33;5.88;;;2.28;;
19406;SDS011;9839;53.364;-1.204;2023-08-24T06:06:58;7.40;;;2.22;;
19406;SDS011;9839;53.364;-1.204;2023-08-24T06:09:24;4.70;;;1.98;;
19406;SDS011;9839;53.364;-1.204;2023-08-24T06:11:49;5.40;;;2.20;;
19406;SDS011;9839;53.364;-1.204;2023-08-24T06:14:14;4.75;;;2.17;;
19406;SDS011;9839;53.364;-1.204;2023-08-24T06:16:40;5.50;;;2.53;;
19406;SDS011;9839;53.364;-1.204;2023-08-24T06:19:05;4.38;;;2.30;;
19406;SDS011;9839;53.364;-1.204;2023-08-24T06:21:31;5.53;;;2.22;;
19406;SDS011;9839;53.364;-1.204;2023-08-24T06:23:56;9.93;;;2.60;;
19406;SDS011;9839;53.364;-1.204;2023-08-24T06:26:22;5.20;;;2.30;;
19406;SDS011;9839;53.364;-1.204;2023-08-24T06:28:48;5.43;;;2.20;;
19406;SDS011;9839;53.364;-1.204;2023-08-24T06:31:13;3.90;;;2.30;;
19406;SDS011;9839;53.364;-1.204;2023-08-24T06:33:39;5.72;;;2.40;;
19406;SDS011;9839;53.364;-1.204;2023-08-24T06:36:05;4.53;;;2.00;;
19406;SDS011;9839;53.364;-1.204;2023-08-24T06:38:30;5.00;;;2.35;;
19406;SDS011;9839;53.364;-1.204;2023-08-24T06:40:57;4.78;;;2.70;;
19406;SDS011;9839;53.364;-1.204;2023-08-24T06:43:23;6.40;;;3.20;;
19406;SDS011;9839;53.364;-1.204;2023-08-24T06:45:48;8.32;;;2.80;;
19406;SDS011;9839;53.364;-1.204;2023-08-24T06:48:14;7.07;;;3.17;;
19406;SDS011;9839;53.364;-1.204;2023-08-24T06:50:39;4.97;;;3.25;;
19406;SDS011;9839;53.364;-1.204;2023-08-24T06:53:04;4.40;;;2.30;;
19406;SDS011;9839;53.364;-1.204;2023-08-24T06:55:30;5.85;;;2.40;;
19406;SDS011;9839;53.364;-1.204;2023-08-24T06:57:56;3.97;;;2.42;;
19406;SDS011;9839;53.364;-1.204;2023-08-24T07:00:21;5.20;;;2.47;;
19406;SDS011;9839;53.364;-1.204;2023-08-24T07:02:48;6.05;;;2.30;;
19406;SDS011;9839;53.364;-1.204;2023-08-24T07:05:16;6.00;;;2.33;;
19406;SDS011;9839;53.364;-1.204;2023-08-24T07:07:45;5.32;;;2.22;;
19406;SDS011;9839;53.364;-1.204;2023-08-24T07:10:11;11.40;;;2.50;;
19406;SDS011;9839;53.364;-1.204;2023-08-24T07:12:36;3.58;;;1.88;;
19406;SDS011;9839;53.364;-1.204;2023-08-24T07:15:04;5.82;;;2.10;;
19406;SDS011;9839;53.364;-1.204;2023-08-24T07:17:30;6.72;;;2.00;;
19406;SDS011;9839;53.364;-1.204;2023-08-24T07:19:55;4.82;;;2.00;;
19406;SDS011;9839;53.364;-1.204;2023-08-24T07:22:21;4.97;;;2.17;;
19406;SDS011;9839;53.364;-1.204;2023-08-24T07:24:46;5.95;;;2.08;;
19406;SDS011;9839;53.364;-1.204;2023-08-24T07:27:17;6.18;;;2.38;;
19406;SDS011;9839;53.364;-1.204;2023-08-24T07:29:42;3.85;;;1.80;;
19406;SDS011;9839;53.364;-1.204;2023-08-24T07:32:07;3.53;;;2.00;;
19406;SDS011;9839;53.364;-1.204;2023-08-24T07:34:33;4.15;;;2.03;;
19406;SDS011;9839;53.364;-1.204;2023-08-24T07:36:58;7.40;;;2.60;;
19406;SDS011;9839;53.364;-1.204;2023-08-24T07:39:23;3.47;;;1.95;;
19406;SDS011;9839;53.364;-1.204;2023-08-24T07:41:49;6.60;;;2.30;;
19406;SDS011;9839;53.364;-1.204;2023-08-24T07:44:14;4.38;;;2.10;;
19406;SDS011;9839;53.364;-1.204;2023-08-24T07:46:40;6.32;;;1.95;;
19406;SDS011;9839;53.364;-1.204;2023-08-24T07:49:05;3.70;;;2.03;;
19406;SDS011;9839;53.364;-1.204;2023-08-24T07:51:32;3.90;;;2.05;;
19406;SDS011;9839;53.364;-1.204;2023-08-24T07:53:58;3.97;;;1.98;;
19406;SDS011;9839;53.364;-1.204;2023-08-24T07:56:23;5.47;;;1.77;;
19406;SDS011;9839;53.364;-1.204;2023-08-24T07:58:49;2.75;;;1.73;;
19406;SDS011;9839;53.364;-1.204;2023-08-24T08:01:14;2.75;;;1.73;;
19406;SDS011;9839;53.364;-1.204;2023-08-24T08:03:39;4.63;;;2.35;;
19406;SDS011;9839;53.364;-1.204;2023-08-24T08:06:05;4.85;;;2.70;;
19406;SDS011;9839;53.364;-1.204;2023-08-24T08:08:30;4.05;;;2.35;;
19406;SDS011;9839;53.364;-1.204;2023-08-24T08:10:59;6.30;;;2.38;;
19406;SDS011;9839;53.364;-1.204;2023-08-24T08:13:25;3.75;;;1.95;;
19406;SDS011;9839;53.364;-1.204;2023-08-24T08:15:52;5.75;;;1.95;;
19406;SDS011;9839;53.364;-1.204;2023-08-24T08:18:18;3.60;;;2.60;;
19406;SDS011;9839;53.364;-1.204;2023-08-24T08:20:43;5.35;;;2.30;;
19406;SDS011;9839;53.364;-1.204;2023-08-24T08:23:08;4.57;;;2.63;;
19406;SDS011;9839;53.364;-1.204;2023-08-24T08:25:34;3.72;;;2.30;;
19406;SDS011;9839;53.364;-1.204;2023-08-24T08:27:59;3.90;;;2.53;;
19406;SDS011;9839;53.364;-1.204;2023-08-24T08:30:24;3.20;;;1.65;;
19406;SDS011;9839;53.364;-1.204;2023-08-24T08:32:50;4.00;;;1.80;;
19406;SDS011;9839;53.364;-1.204;2023-08-24T08:35:17;3.63;;;1.95;;
19406;SDS011;9839;53.364;-1.204;2023-08-24T08:37:43;3.23;;;1.57;;
19406;SDS011;9839;53.364;-1.204;2023-08-24T08:40:11;5.93;;;1.65;;
19406;SDS011;9839;53.364;-1.204;2023-08-24T08:42:37;3.20;;;1.40;;
19406;SDS011;9839;53.364;-1.204;2023-08-24T08:45:03;2.65;;;1.73;;
19406;SDS011;9839;53.364;-1.204;2023-08-24T08:47:29;5.07;;;1.48;;
19406;SDS011;9839;53.364;-1.204;2023-08-24T08:49:55;1.35;;;1.20;;
19406;SDS011;9839;53.364;-1.204;2023-08-24T08:52:21;3.97;;;1.83;;
19406;SDS011;9839;53.364;-1.204;2023-08-24T08:54:47;4.43;;;1.25;;
19406;SDS011;9839;53.364;-1.204;2023-08-24T08:57:12;1.50;;;1.20;;
19406;SDS011;9839;53.364;-1.204;2023-08-24T08:59:39;4.75;;;1.40;;
19406;SDS011;9839;53.364;-1.204;2023-08-24T09:02:04;4.03;;;1.20;;
19406;SDS011;9839;53.364;-1.204;2023-08-24T09:04:31;4.60;;;1.38;;
19406;SDS011;9839;53.364;-1.204;2023-08-24T09:06:57;6.97;;;1.40;;
19406;SDS011;9839;53.364;-1.204;2023-08-24T09:09:23;3.20;;;1.58;;
19406;SDS011;9839;53.364;-1.204;2023-08-24T09:11:50;1.98;;;1.25;;
19406;SDS011;9839;53.364;-1.204;2023-08-24T09:14:15;4.80;;;1.30;;
19406;SDS011;9839;53.364;-1.204;2023-08-24T09:16:41;3.58;;;1.30;;
19406;SDS011;9839;53.364;-1.204;2023-08-24T09:19:10;2.42;;;1.35;;
19406;SDS011;9839;53.364;-1.204;2023-08-24T09:21:36;4.45;;;1.30;;
19406;SDS011;9839;53.364;-1.204;2023-08-24T09:24:02;2.10;;;1.20;;
19406;SDS011;9839;53.364;-1.204;2023-08-24T09:26:35;2.17;;;1.20;;
19406;SDS011;9839;53.364;-1.204;2023-08-24T09:29:20;2.08;;;1.05;;
19406;SDS011;9839;53.364;-1.204;2023-08-24T09:31:46;4.63;;;1.48;;
19406;SDS011;9839;53.364;-1.204;2023-08-24T09:34:12;3.00;;;1.38;;
19406;SDS011;9839;53.364;-1.204;2023-08-24T09:36:37;4.22;;;1.45;;
19406;SDS011;9839;53.364;-1.204;2023-08-24T09:39:03;2.15;;;1.20;;
19406;SDS011;9839;53.364;-1.204;2023-08-24T09:44:08;5.53;;;1.48;;
19406;SDS011;9839;53.364;-1.204;2023-08-24T09:46:36;4.15;;;1.38;;
19406;SDS011;9839;53.364;-1.204;2023-08-24T09:49:06;3.17;;;1.30;;
19406;SDS011;9839;53.364;-1.204;2023-08-24T09:51:33;6.72;;;1.65;;
19406;SDS011;9839;53.364;-1.204;2023-08-24T09:53:59;2.20;;;1.17;;
19406;SDS011;9839;53.364;-1.204;2023-08-24T09:56:29;3.83;;;1.50;;
19406;SDS011;9839;53.364;-1.204;2023-08-24T09:58:55;5.75;;;1.48;;
19406;SDS011;9839;53.364;-1.204;2023-08-24T10:01:23;4.82;;;1.25;;
19406;SDS011;9839;53.364;-1.204;2023-08-24T10:03:50;4.13;;;1.40;;
19406;SDS011;9839;53.364;-1.204;2023-08-24T10:06:17;2.00;;;1.60;;
19406;SDS011;9839;53.364;-1.204;2023-08-24T10:08:47;2.03;;;1.33;;
19406;SDS011;9839;53.364;-1.204;2023-08-24T10:11:13;2.67;;;1.30;;
19406;SDS011;9839;53.364;-1.204;2023-08-24T10:16:24;2.97;;;1.60;;
19406;SDS011;9839;53.364;-1.204;2023-08-24T10:18:50;3.78;;;1.73;;
19406;SDS011;9839;53.364;-1.204;2023-08-24T10:21:16;2.75;;;1.30;;
19406;SDS011;9839;53.364;-1.204;2023-08-24T10:23:43;4.25;;;1.45;;
19406;SDS011;9839;53.364;-1.204;2023-08-24T10:26:08;2.03;;;1.20;;
19406;SDS011;9839;53.364;-1.204;2023-08-24T10:28:36;1.92;;;1.40;;
19406;SDS011;9839;53.364;-1.204;2023-08-24T10:31:01;2.10;;;1.27;;
19406;SDS011;9839;53.364;-1.204;2023-08-24T10:33:27;1.65;;;1.40;;
19406;SDS011;9839;53.364;-1.204;2023-08-24T10:35:53;2.72;;;1.40;;
19406;SDS011;9839;53.364;-1.204;2023-08-24T10:38:29;1.80;;;1.40;;
19406;SDS011;9839;53.364;-1.204;2023-08-24T10:40:55;3.35;;;1.60;;
19406;SDS011;9839;53.364;-1.204;2023-08-24T10:43:28;2.47;;;1.30;;
19406;SDS011;9839;53.364;-1.204;2023-08-24T10:45:54;3.40;;;1.20;;
19406;SDS011;9839;53.364;-1.204;2023-08-24T10:48:21;1.73;;;1.02;;
19406;SDS011;9839;53.364;-1.204;2023-08-24T10:51:16;2.30;;;1.00;;
19406;SDS011;9839;53.364;-1.204;2023-08-24T10:56:16;6.32;;;1.17;;
19406;SDS011;9839;53.364;-1.204;2023-08-24T10:58:43;3.20;;;0.80;;
19406;SDS011;9839;53.364;-1.204;2023-08-24T11:01:19;2.80;;;1.05;;
19406;SDS011;9839;53.364;-1.204;2023-08-24T11:03:56;1.60;;;1.30;;
19406;SDS011;9839;53.364;-1.204;2023-08-24T11:06:21;1.23;;;1.02;;
19406;SDS011;9839;53.364;-1.204;2023-08-24T11:08:48;2.42;;;0.93;;
19406;SDS011;9839;53.364;-1.204;2023-08-24T11:11:21;4.32;;;1.42;;
19406;SDS011;9839;53.364;-1.204;2023-08-24T11:16:50;1.65;;;1.13;;
19406;SDS011;9839;53.364;-1.204;2023-08-24T11:19:16;6.93;;;1.50;;
19406;SDS011;9839;53.364;-1.204;2023-08-24T11:21:44;3.13;;;1.40;;
19406;SDS011;9839;53.364;-1.204;2023-08-24T11:24:13;3.42;;;1.50;;
19406;SDS011;9839;53.364;-1.204;2023-08-24T11:26:41;2.80;;;1.80;;
19406;SDS011;9839;53.364;-1.204;2023-08-24T11:29:07;4.45;;;2.85;;
19406;SDS011;9839;53.364;-1.204;2023-08-24T11:31:33;4.57;;;2.50;;
19406;SDS011;9839;53.364;-1.204;2023-08-24T11:33:59;5.38;;;3.00;;
19406;SDS011;9839;53.364;-1.204;2023-08-24T11:36:25;6.72;;;4.20;;
19406;SDS011;9839;53.364;-1.204;2023-08-24T11:38:55;9.55;;;4.97;;
19406;SDS011;9839;53.364;-1.204;2023-08-24T11:41:21;9.30;;;3.83;;
19406;SDS011;9839;53.364;-1.204;2023-08-24T11:43:47;5.80;;;2.38;;
19406;SDS011;9839;53.364;-1.204;2023-08-24T11:46:15;3.28;;;2.58;;
19406;SDS011;9839;53.364;-1.204;2023-08-24T11:48:41;3.22;;;2.20;;
19406;SDS011;9839;53.364;-1.204;2023-08-24T11:51:11;3.80;;;2.50;;
19406;SDS011;9839;53.364;-1.204;2023-08-24T11:53:41;6.70;;;3.15;;
19406;SDS011;9839;53.364;-1.204;2023-08-24T11:56:10;5.00;;;2.53;;
19406;SDS011;9839;53.364;-1.204;2023-08-24T11:58:38;7.45;;;2.80;;
19406;SDS011;9839;53.364;-1.204;2023-08-24T12:01:07;4.20;;;3.10;;
19406;SDS011;9839;53.364;-1.204;2023-08-24T12:03:33;7.70;;;3.67;;
19406;SDS011;9839;53.364;-1.204;2023-08-24T12:06:00;6.22;;;3.63;;
19406;SDS011;9839;53.364;-1.204;2023-08-24T12:08:26;8.60;;;4.40;;
19406;SDS011;9839;53.364;-1.204;2023-08-24T12:10:51;7.72;;;3.97;;
19406;SDS011;9839;53.364;-1.204;2023-08-24T12:13:17;11.25;;;4.55;;
19406;SDS011;9839;53.364;-1.204;2023-08-24T12:15:42;5.88;;;3.58;;
19406;SDS011;9839;53.364;-1.204;2023-08-24T12:18:09;7.32;;;3.90;;
19406;SDS011;9839;53.364;-1.204;2023-08-24T12:20:34;6.10;;;4.03;;
19406;SDS011;9839;53.364;-1.204;2023-08-24T12:23:00;5.47;;;3.72;;
19406;SDS011;9839;53.364;-1.204;2023-08-24T12:25:25;6.13;;;3.88;;
19406;SDS011;9839;53.364;-1.204;2023-08-24T12:27:51;5.60;;;3.83;;
19406;SDS011;9839;53.364;-1.204;2023-08-24T12:30:17;5.60;;;3.67;;
19406;SDS011;9839;53.364;-1.204;2023-08-24T12:32:44;5.40;;;3.42;;
19406;SDS011;9839;53.364;-1.204;2023-08-24T12:35:11;5.65;;;3.50;;
19406;SDS011;9839;53.364;-1.204;2023-08-24T12:37:37;7.68;;;3.28;;
19406;SDS011;9839;53.364;-1.204;2023-08-24T12:40:03;5.18;;;2.85;;
19406;SDS011;9839;53.364;-1.204;2023-08-24T12:42:31;5.53;;;3.15;;
19406;SDS011;9839;53.364;-1.204;2023-08-24T12:44:58;6.18;;;3.17;;
19406;SDS011;9839;53.364;-1.204;2023-08-24T12:47:23;7.13;;;2.65;;
19406;SDS011;9839;53.364;-1.204;2023-08-24T12:49:49;5.82;;;3.00;;
19406;SDS011;9839;53.364;-1.204;2023-08-24T12:52:16;3.70;;;3.33;;
19406;SDS011;9839;53.364;-1.204;2023-08-24T12:54:41;3.67;;;2.22;;
19406;SDS011;9839;53.364;-1.204;2023-08-24T12:57:07;3.03;;;2.10;;
19406;SDS011;9839;53.364;-1.204;2023-08-24T12:59:33;2.42;;;2.15;;
19406;SDS011;9839;53.364;-1.204;2023-08-24T13:01:58;4.97;;;2.20;;
19406;SDS011;9839;53.364;-1.204;2023-08-24T13:04:24;4.38;;;2.00;;
19406;SDS011;9839;53.364;-1.204;2023-08-24T13:06:49;4.45;;;2.50;;
19406;SDS011;9839;53.364;-1.204;2023-08-24T13:09:14;3.25;;;2.17;;
19406;SDS011;9839;53.364;-1.204;2023-08-24T13:11:40;8.25;;;2.47;;
19406;SDS011;9839;53.364;-1.204;2023-08-24T13:14:05;5.40;;;2.25;;
19406;SDS011;9839;53.364;-1.204;2023-08-24T13:16:30;5.72;;;2.50;;
19406;SDS011;9839;53.364;-1.204;2023-08-24T13:18:56;9.43;;;2.15;;
19406;SDS011;9839;53.364;-1.204;2023-08-24T13:21:21;2.80;;;2.00;;
19406;SDS011;9839;53.364;-1.204;2023-08-24T13:23:47;1.33;;;1.20;;
19406;SDS011;9839;53.364;-1.204;2023-08-24T13:26:19;1.15;;;1.02;;
19406;SDS011;9839;53.364;-1.204;2023-08-24T13:28:46;2.45;;;1.30;;
19406;SDS011;9839;53.364;-1.204;2023-08-24T13:31:14;1.05;;;0.80;;
19406;SDS011;9839;53.364;-1.204;2023-08-24T13:33:39;1.65;;;1.08;;
19406;SDS011;9839;53.364;-1.204;2023-08-24T13:36:05;2.92;;;1.00;;
19406;SDS011;9839;53.364;-1.204;2023-08-24T13:38:30;1.40;;;0.80;;
19406;SDS011;9839;53.364;-1.204;2023-08-24T13:40:56;1.33;;;0.90;;
19406;SDS011;9839;53.364;-1.204;2023-08-24T13:43:22;1.83;;;1.05;;
19406;SDS011;9839;53.364;-1.204;2023-08-24T13:45:47;1.90;;;0.88;;
19406;SDS011;9839;53.364;-1.204;2023-08-24T13:48:13;0.98;;;0.80;;
19406;SDS011;9839;53.364;-1.204;2023-08-24T13:50:40;2.00;;;0.65;;
19406;SDS011;9839;53.364;-1.204;2023-08-24T13:53:06;0.88;;;0.70;;
19406;SDS011;9839;53.364;-1.204;2023-08-24T13:55:32;1.15;;;0.70;;
19406;SDS011;9839;53.364;-1.204;2023-08-24T13:57:57;0.80;;;0.70;;
19406;SDS011;9839;53.364;-1.204;2023-08-24T14:00:23;0.65;;;0.65;;
19406;SDS011;9839;53.364;-1.204;2023-08-24T14:02:48;0.63;;;0.50;;
19406;SDS011;9839;53.364;-1.204;2023-08-24T14:05:14;2.47;;;0.70;;
19406;SDS011;9839;53.364;-1.204;2023-08-24T14:07:40;0.60;;;0.50;;
19406;SDS011;9839;53.364;-1.204;2023-08-24T14:10:06;1.85;;;0.50;;
19406;SDS011;9839;53.364;-1.204;2023-08-24T14:12:33;0.55;;;0.55;;
19406;SDS011;9839;53.364;-1.204;2023-08-24T14:14:58;1.65;;;0.60;;
19406;SDS011;9839;53.364;-1.204;2023-08-24T14:17:24;0.88;;;0.70;;
19406;SDS011;9839;53.364;-1.204;2023-08-24T14:19:49;0.80;;;0.70;;
19406;SDS011;9839;53.364;-1.204;2023-08-24T14:22:14;2.35;;;0.60;;
19406;SDS011;9839;53.364;-1.204;2023-08-24T14:24:40;1.48;;;0.70;;
19406;SDS011;9839;53.364;-1.204;2023-08-24T14:27:05;2.70;;;0.80;;
19406;SDS011;9839;53.364;-1.204;2023-08-24T14:29:30;1.23;;;0.70;;
19406;SDS011;9839;53.364;-1.204;2023-08-24T14:31:56;1.83;;;0.70;;
19406;SDS011;9839;53.364;-1.204;2023-08-24T14:34:21;1.98;;;1.25;;
19406;SDS011;9839;53.364;-1.204;2023-08-24T14:36:46;0.73;;;0.73;;
19406;SDS011;9839;53.364;-1.204;2023-08-24T14:39:12;1.30;;;0.90;;
19406;SDS011;9839;53.364;-1.204;2023-08-24T14:41:38;1.90;;;1.23;;
19406;SDS011;9839;53.364;-1.204;2023-08-24T14:44:03;5.18;;;1.42;;
19406;SDS011;9839;53.364;-1.204;2023-08-24T14:46:29;4.43;;;1.65;;
19406;SDS011;9839;53.364;-1.204;2023-08-24T14:48:54;5.63;;;1.50;;
19406;SDS011;9839;53.364;-1.204;2023-08-24T14:51:19;5.55;;;1.60;;
19406;SDS011;9839;53.364;-1.204;2023-08-24T14:53:45;1.92;;;1.35;;
19406;SDS011;9839;53.364;-1.204;2023-08-24T14:56:10;2.05;;;1.40;;